Bei Facebook empfehlenBei Twitter postenGoogle plusPinterest

Das Wetter im Erzgebirge am 20.08.2017

Wetter und Klima am 20.08.2017 Holzhau im Erzgebirge (630m ü.NN)
Letzte gemessene Temperatur und Uhrzeit der Messung23:45:00 Uhr7.20 °C
Temperatur (Maximum / Höchstwert) und Uhrzeit der Messung15:00:00 Uhr21.40 °C
Temperatur (Minimum / Tiefstwert) und Uhrzeit der Messung06:15:005.30 °C
Errechneter Absolutwert der Temperaturschwankungen zwischen Tmin und Tmax des Tages16.10 K
Errechnete Tagesmitteltemperatur12.04688 °C
Gesamt - Niederschlag des Tages (in flüssiger Form)3.11 Liter / m²
Luftdruck (Maximum / Höchstwert) und Zeitpunkt der Messung23:15:00 Uhr1018.80 hPa
Luftdruck (Minimum / Tiefstwert) und Zeitpunkt der Messung01:45:00 Uhr1016.00 hPa
Errechneter Absolutwert der Luftdruckschwankungen des Tages2.80 hPa
Höchste gemessene Windgeschwindigkeit und Uhrzeit der Messung13:00:00 Uhr24.48 km/h
Errechnete Windhäufigkeit in Relation zu den Messwerten des Tages10.41667 %
Niedrigste Windkühle (Windchill) und Zeitpunkt der Messung06:15:00 Uhr5.30 °C
Taupunkt (Maximum / Höchstwert) und Uhrzeit der Messung11:00:00 Uhr11.90 °C
Taupunkt (Minimum / Tiefstwert) und Uhrzeit der Messung06:15:004.10 °C
Anzahl der automatisch eingelesenen Messwerte 96

Detaillierte Wetter- und Klima- Messwerte für den 20.08.2017 in Holzhau im Erzgebirge (630m ü.NN)
ZeitTemperaturLuftdruckRel. LuftfeuchteWindWindrichtungWindchillTaupunktNiederschlag l/m²
23:45:007.20 °C1018.70 hPa89.00 %5.50 °C3.11
23:30:007.30 °C1018.60 hPa89.00 %5.60 °C3.11
23:15:007.40 °C1018.80 hPa89.00 %5.70 °C3.11
23:00:007.40 °C1018.50 hPa88.00 %5.50 °C3.11
22:45:007.30 °C1018.50 hPa88.00 %5.40 °C3.11
22:30:007.40 °C1018.40 hPa87.00 %5.40 °C3.11
22:15:007.80 °C1018.50 hPa86.00 %5.60 °C3.11
22:00:008.20 °C1018.40 hPa86.00 %6.00 °C3.11
21:45:008.50 °C1018.40 hPa86.00 %6.30 °C3.11
21:30:008.60 °C1018.40 hPa85.00 %6.20 °C3.11
21:15:008.90 °C1018.60 hPa84.00 %6.30 °C3.11
21:00:009.60 °C1018.40 hPa83.00 %6.90 °C2.59
20:45:0010.10 °C1018.20 hPa83.00 %7.30 °C2.59
20:30:0010.50 °C1018.50 hPa81.00 %7.40 °C2.59
20:15:0011.10 °C1018.50 hPa79.00 %7.60 °C2.59
20:00:0012.40 °C1018.40 hPa72.00 %7.50 °C1.04
19:45:0013.30 °C1017.90 hPa68.00 %7.50 °C 
19:30:0013.90 °C1018.10 hPa67.00 %7.90 °C 
19:15:0014.70 °C1018.20 hPa66.00 %8.40 °C 
19:00:0015.30 °C1017.90 hPa65.00 %8.80 °C 
18:45:0015.80 °C1017.90 hPa63.00 %8.80 °C 
18:30:0016.30 °C1017.90 hPa61.00 %8.80 °C 
18:15:0017.10 °C1017.90 hPa56.00 %8.30 °C 
18:00:0017.90 °C1017.80 hPa56.00 %9.00 °C 
17:45:0017.60 °C1017.90 hPa55.00 %8.50 °C 
17:30:0018.50 °C1017.90 hPa53.00 %8.70 °C 
17:15:0018.70 °C1017.90 hPa53.00 %5.04 km/hW18.70 °C8.90 °C 
17:00:0018.60 °C1017.80 hPa55.00 %9.40 °C 
16:45:0018.10 °C1017.80 hPa57.00 %9.50 °C 
16:30:0017.40 °C1017.90 hPa59.00 %9.30 °C 
16:15:0017.40 °C1018.20 hPa59.00 %9.30 °C 
16:00:0017.10 °C1018.10 hPa58.00 %8.80 °C 
15:45:0017.40 °C1018.30 hPa57.00 %8.80 °C 
15:30:0018.30 °C1018.10 hPa53.00 %8.60 °C 
15:15:0020.70 °C1017.90 hPa46.00 %10.44 km/hNNW20.70 °C8.70 °C 
15:00:0021.40 °C1017.50 hPa46.00 %9.30 °C 
14:45:0020.90 °C1017.60 hPa46.00 %8.90 °C 
14:30:0020.40 °C1017.40 hPa49.00 %9.30 °C 
14:15:0020.10 °C1017.50 hPa49.00 %9.10 °C 
14:00:0019.80 °C1017.50 hPa53.00 %10.00 °C 
13:45:0018.80 °C1017.40 hPa56.00 %6.48 km/hWNW18.80 °C9.80 °C 
13:30:0018.80 °C1017.40 hPa56.00 %9.80 °C 
13:15:0018.80 °C1017.50 hPa53.00 %9.00 °C 
13:00:0019.60 °C1017.40 hPa55.00 %24.48 km/hNW20.40 °C10.30 °C 
12:45:0019.20 °C1017.40 hPa56.00 %10.20 °C 
12:30:0019.00 °C1017.60 hPa56.00 %10.00 °C 
12:15:0019.10 °C1017.50 hPa58.00 %7.92 km/hNW19.10 °C10.60 °C 
12:00:0018.90 °C1017.70 hPa60.00 %5.04 km/hWNW18.90 °C11.00 °C 
11:45:0018.80 °C1017.60 hPa62.00 %10.44 km/hW18.80 °C11.40 °C 
11:30:0019.00 °C1017.60 hPa62.00 %11.60 °C 
11:15:0018.50 °C1017.30 hPa64.00 %11.60 °C 
11:00:0017.40 °C1017.40 hPa70.00 %11.90 °C 
10:45:0016.60 °C1017.60 hPa69.00 %10.90 °C 
10:30:0016.60 °C1017.30 hPa72.00 %11.50 °C 
10:15:0015.90 °C1017.40 hPa75.00 %11.50 °C 
10:00:0015.60 °C1017.50 hPa76.00 %23.40 km/hW15.80 °C11.40 °C 
09:45:0015.10 °C1017.30 hPa80.00 %11.70 °C 
09:30:0014.80 °C1017.20 hPa82.00 %11.80 °C 
09:15:0013.40 °C1017.30 hPa87.00 %11.30 °C 
09:00:0011.60 °C1017.10 hPa90.00 %10.00 °C 
08:45:0010.30 °C1017.10 hPa91.00 %8.90 °C 
08:30:009.40 °C1017.40 hPa91.00 %8.00 °C 
08:15:009.20 °C1017.20 hPa92.00 %8.00 °C 
08:00:008.80 °C1017.10 hPa93.00 %7.70 °C 
07:45:007.90 °C1017.10 hPa93.00 %6.80 °C 
07:30:006.90 °C1017.00 hPa93.00 %5.80 °C 
07:15:006.20 °C1016.90 hPa93.00 %5.20 °C 
07:00:005.80 °C1016.70 hPa93.00 %4.80 °C 
06:45:005.60 °C1016.80 hPa92.00 %4.40 °C 
06:30:005.50 °C1016.60 hPa92.00 %4.30 °C 
06:15:005.30 °C1016.50 hPa92.00 %4.10 °C 
06:00:005.40 °C1016.70 hPa92.00 %4.20 °C 
05:45:005.40 °C1016.80 hPa91.00 %4.10 °C 
05:30:005.60 °C1016.80 hPa91.00 %4.20 °C 
05:15:005.70 °C1016.90 hPa91.00 %4.30 °C 
05:00:005.90 °C1016.70 hPa91.00 %4.50 °C 
04:45:006.10 °C1016.80 hPa91.00 %4.70 °C 
04:30:006.30 °C1016.70 hPa91.00 %4.90 °C 
04:15:006.40 °C1016.70 hPa91.00 %7.92 km/hOSO6.40 °C5.00 °C 
04:00:006.50 °C1016.70 hPa91.00 %5.10 °C 
03:45:006.40 °C1016.50 hPa91.00 %5.00 °C 
03:30:006.20 °C1016.60 hPa91.00 %6.48 km/hOSO6.20 °C4.80 °C 
03:15:006.10 °C1016.50 hPa90.00 %4.60 °C 
03:00:006.30 °C1016.50 hPa90.00 %4.80 °C 
02:45:006.40 °C1016.60 hPa90.00 %4.90 °C 
02:30:006.50 °C1016.30 hPa89.00 %4.80 °C 
02:15:006.60 °C1016.30 hPa89.00 %4.90 °C 
02:00:006.90 °C1016.10 hPa89.00 %5.20 °C 
01:45:007.00 °C1016.00 hPa89.00 %5.30 °C 
01:30:007.10 °C1016.10 hPa89.00 %5.40 °C 
01:15:007.20 °C1016.40 hPa88.00 %5.30 °C 
01:00:007.30 °C1016.40 hPa88.00 %5.40 °C 
00:45:007.30 °C1016.50 hPa88.00 %5.40 °C 
00:30:007.50 °C1016.70 hPa87.00 %5.50 °C 
00:15:007.80 °C1016.70 hPa87.00 %5.80 °C 
00:00:007.80 °C1016.90 hPa87.00 %5.80 °C 

Permanenter Link zu dieser Seite: Wetter im Erzgebirge am 20.08.2017
Performance-Info: Die Erstellung der Seite / Statistik(en) / Tabelle(n) erforderte 5 Datenbankserver-Abfrage(n) und dauerte 101 Millisekunden. (Dieser Messwert ist von der Gesamt-Auslastung des Servers abhängig.)
Erzgebirge - Wetter | Erzgebirge - Wetter (Mobilgeräte) | Komplette Klimadatenbank